sensor_id;sensor_type;location;lat;lon;timestamp;pressure;altitude;pressure_sealevel;temperature;humidity
6435;BME280;3250;42.694;23.278;2023-04-07T00:01:18;94559.81;;;4.21;58.44
6435;BME280;3250;42.694;23.278;2023-04-07T00:03:44;94560.97;;;4.18;59.11
6435;BME280;3250;42.694;23.278;2023-04-07T00:06:09;94561.44;;;4.22;57.98
6435;BME280;3250;42.694;23.278;2023-04-07T00:08:34;94518.84;;;4.00;57.71
6435;BME280;3250;42.694;23.278;2023-04-07T00:11:00;94547.38;;;4.08;57.79
6435;BME280;3250;42.694;23.278;2023-04-07T00:13:25;94551.81;;;4.22;58.51
6435;BME280;3250;42.694;23.278;2023-04-07T00:15:51;94557.47;;;4.11;57.88
6435;BME280;3250;42.694;23.278;2023-04-07T00:18:16;94512.81;;;3.99;58.17
6435;BME280;3250;42.694;23.278;2023-04-07T00:20:42;94558.09;;;4.28;58.61
6435;BME280;3250;42.694;23.278;2023-04-07T00:23:07;94551.91;;;4.29;58.07
6435;BME280;3250;42.694;23.278;2023-04-07T00:25:33;94549.03;;;4.24;57.96
6435;BME280;3250;42.694;23.278;2023-04-07T00:27:58;94555.16;;;4.31;57.51
6435;BME280;3250;42.694;23.278;2023-04-07T00:30:23;94533.69;;;4.14;58.11
6435;BME280;3250;42.694;23.278;2023-04-07T00:32:49;94551.00;;;4.22;58.21
6435;BME280;3250;42.694;23.278;2023-04-07T00:35:15;94542.91;;;4.16;58.16
6435;BME280;3250;42.694;23.278;2023-04-07T00:37:41;94536.81;;;4.09;57.26
6435;BME280;3250;42.694;23.278;2023-04-07T00:40:07;94551.81;;;4.22;57.54
6435;BME280;3250;42.694;23.278;2023-04-07T00:42:33;94547.03;;;4.26;57.41
6435;BME280;3250;42.694;23.278;2023-04-07T00:44:59;94535.81;;;4.10;56.83
6435;BME280;3250;42.694;23.278;2023-04-07T00:47:25;94557.19;;;4.21;57.11
6435;BME280;3250;42.694;23.278;2023-04-07T00:49:50;94544.19;;;4.21;56.67
6435;BME280;3250;42.694;23.278;2023-04-07T00:52:16;94542.38;;;4.06;57.07
6435;BME280;3250;42.694;23.278;2023-04-07T00:54:43;94556.91;;;4.15;57.26
6435;BME280;3250;42.694;23.278;2023-04-07T00:57:10;94550.19;;;4.06;57.43
6435;BME280;3250;42.694;23.278;2023-04-07T00:59:35;94550.38;;;4.05;57.38
6435;BME280;3250;42.694;23.278;2023-04-07T01:02:37;94552.63;;;4.23;57.12
6435;BME280;3250;42.694;23.278;2023-04-07T01:05:20;94554.22;;;4.09;57.44
6435;BME280;3250;42.694;23.278;2023-04-07T01:07:50;94545.97;;;4.20;56.91
6435;BME280;3250;42.694;23.278;2023-04-07T01:10:22;94551.53;;;4.17;57.92
6435;BME280;3250;42.694;23.278;2023-04-07T01:15:29;94543.28;;;4.13;57.11
6435;BME280;3250;42.694;23.278;2023-04-07T01:18:08;94533.03;;;4.12;58.13
6435;BME280;3250;42.694;23.278;2023-04-07T01:20:36;94534.28;;;4.01;57.30
6435;BME280;3250;42.694;23.278;2023-04-07T01:23:04;94530.44;;;4.12;57.70
6435;BME280;3250;42.694;23.278;2023-04-07T01:30:50;94547.50;;;4.14;57.44
6435;BME280;3250;42.694;23.278;2023-04-07T01:33:19;94525.41;;;3.96;57.62
6435;BME280;3250;42.694;23.278;2023-04-07T01:35:45;94534.66;;;4.13;57.80
6435;BME280;3250;42.694;23.278;2023-04-07T01:38:11;94530.53;;;4.18;57.97
6435;BME280;3250;42.694;23.278;2023-04-07T01:40:38;94519.94;;;4.05;57.38
6435;BME280;3250;42.694;23.278;2023-04-07T01:43:05;94518.91;;;3.92;57.94
6435;BME280;3250;42.694;23.278;2023-04-07T01:45:33;94528.91;;;4.17;57.88
6435;BME280;3250;42.694;23.278;2023-04-07T01:47:59;94525.84;;;4.29;57.11
6435;BME280;3250;42.694;23.278;2023-04-07T01:50:25;94523.59;;;4.40;56.91
6435;BME280;3250;42.694;23.278;2023-04-07T01:52:52;94511.09;;;4.36;56.59
6435;BME280;3250;42.694;23.278;2023-04-07T01:55:18;94529.06;;;4.45;55.83
6435;BME280;3250;42.694;23.278;2023-04-07T01:57:43;94524.66;;;4.46;55.67
6435;BME280;3250;42.694;23.278;2023-04-07T02:00:09;94507.41;;;4.45;55.99
6435;BME280;3250;42.694;23.278;2023-04-07T02:02:38;94517.28;;;4.64;54.93
6435;BME280;3250;42.694;23.278;2023-04-07T02:05:07;94521.63;;;4.57;54.92
6435;BME280;3250;42.694;23.278;2023-04-07T02:07:48;94517.81;;;4.60;55.17
6435;BME280;3250;42.694;23.278;2023-04-07T02:10:16;94522.50;;;4.64;55.06
6435;BME280;3250;42.694;23.278;2023-04-07T02:12:44;94523.66;;;4.62;54.37
6435;BME280;3250;42.694;23.278;2023-04-07T02:15:12;94493.41;;;4.46;54.58
6435;BME280;3250;42.694;23.278;2023-04-07T02:17:40;94514.16;;;4.54;54.89
6435;BME280;3250;42.694;23.278;2023-04-07T02:20:07;94516.72;;;4.69;54.59
6435;BME280;3250;42.694;23.278;2023-04-07T02:22:34;94502.84;;;4.47;54.80
6435;BME280;3250;42.694;23.278;2023-04-07T02:25:00;94506.41;;;4.61;54.19
6435;BME280;3250;42.694;23.278;2023-04-07T02:27:25;94508.47;;;4.65;54.84
6435;BME280;3250;42.694;23.278;2023-04-07T02:29:50;94506.97;;;4.56;53.74
6435;BME280;3250;42.694;23.278;2023-04-07T02:32:16;94513.69;;;4.65;54.00
6435;BME280;3250;42.694;23.278;2023-04-07T02:34:42;94499.69;;;4.37;54.03
6435;BME280;3250;42.694;23.278;2023-04-07T02:37:07;94517.75;;;4.53;55.48
6435;BME280;3250;42.694;23.278;2023-04-07T02:39:33;94516.13;;;4.52;53.64
6435;BME280;3250;42.694;23.278;2023-04-07T02:41:58;94526.75;;;4.36;54.40
6435;BME280;3250;42.694;23.278;2023-04-07T02:44:23;94530.13;;;4.51;54.72
6435;BME280;3250;42.694;23.278;2023-04-07T02:46:49;94538.56;;;4.68;53.88
6435;BME280;3250;42.694;23.278;2023-04-07T02:49:14;94523.63;;;4.76;54.68
6435;BME280;3250;42.694;23.278;2023-04-07T02:51:40;94518.91;;;4.86;53.35
6435;BME280;3250;42.694;23.278;2023-04-07T02:54:05;94505.75;;;4.59;52.78
6435;BME280;3250;42.694;23.278;2023-04-07T02:56:31;94527.66;;;4.79;54.03
6435;BME280;3250;42.694;23.278;2023-04-07T02:58:56;94528.53;;;4.86;54.57
6435;BME280;3250;42.694;23.278;2023-04-07T03:01:22;94534.56;;;4.86;53.57
6435;BME280;3250;42.694;23.278;2023-04-07T03:03:47;94519.31;;;4.83;54.39
6435;BME280;3250;42.694;23.278;2023-04-07T03:06:13;94519.19;;;4.91;54.49
6435;BME280;3250;42.694;23.278;2023-04-07T03:08:38;94535.53;;;5.00;54.44
6435;BME280;3250;42.694;23.278;2023-04-07T03:11:04;94536.03;;;5.10;53.37
6435;BME280;3250;42.694;23.278;2023-04-07T03:13:29;94526.72;;;5.01;53.35
6435;BME280;3250;42.694;23.278;2023-04-07T03:15:56;94530.38;;;5.07;53.41
6435;BME280;3250;42.694;23.278;2023-04-07T03:18:25;94506.59;;;4.95;52.75
6435;BME280;3250;42.694;23.278;2023-04-07T03:20:50;94541.19;;;5.04;52.91
6435;BME280;3250;42.694;23.278;2023-04-07T03:23:17;94501.19;;;4.75;52.66
6435;BME280;3250;42.694;23.278;2023-04-07T03:25:43;94499.94;;;4.57;53.58
6435;BME280;3250;42.694;23.278;2023-04-07T03:28:08;94537.97;;;4.66;53.49
6435;BME280;3250;42.694;23.278;2023-04-07T03:30:34;94517.91;;;4.66;54.16
6435;BME280;3250;42.694;23.278;2023-04-07T03:32:59;94527.16;;;4.69;54.13
6435;BME280;3250;42.694;23.278;2023-04-07T03:35:25;94484.72;;;4.39;53.95
6435;BME280;3250;42.694;23.278;2023-04-07T03:37:51;94528.97;;;4.53;53.90
6435;BME280;3250;42.694;23.278;2023-04-07T03:40:16;94531.06;;;4.58;54.57
6435;BME280;3250;42.694;23.278;2023-04-07T03:42:42;94528.50;;;4.65;54.12
6435;BME280;3250;42.694;23.278;2023-04-07T03:45:07;94533.44;;;4.60;54.37
6435;BME280;3250;42.694;23.278;2023-04-07T03:47:34;94535.25;;;4.59;54.96
6435;BME280;3250;42.694;23.278;2023-04-07T03:50:00;94516.56;;;4.55;54.15
6435;BME280;3250;42.694;23.278;2023-04-07T03:52:25;94541.16;;;4.68;54.58
6435;BME280;3250;42.694;23.278;2023-04-07T03:54:50;94535.88;;;4.61;54.66
6435;BME280;3250;42.694;23.278;2023-04-07T03:57:16;94520.00;;;4.56;54.41
6435;BME280;3250;42.694;23.278;2023-04-07T03:59:41;94538.59;;;4.53;54.64
6435;BME280;3250;42.694;23.278;2023-04-07T04:02:07;94515.50;;;4.35;54.64
6435;BME280;3250;42.694;23.278;2023-04-07T04:04:32;94542.56;;;4.49;54.78
6435;BME280;3250;42.694;23.278;2023-04-07T04:06:57;94546.06;;;4.56;54.51
6435;BME280;3250;42.694;23.278;2023-04-07T04:09:23;94528.44;;;4.58;55.13
6435;BME280;3250;42.694;23.278;2023-04-07T04:11:48;94520.88;;;4.63;55.49
6435;BME280;3250;42.694;23.278;2023-04-07T04:14:13;94547.38;;;4.81;55.14
6435;BME280;3250;42.694;23.278;2023-04-07T04:16:39;94550.66;;;4.90;55.45
6435;BME280;3250;42.694;23.278;2023-04-07T04:19:05;94546.69;;;4.94;55.51
6435;BME280;3250;42.694;23.278;2023-04-07T04:21:30;94556.19;;;5.02;55.66
6435;BME280;3250;42.694;23.278;2023-04-07T04:23:56;94539.94;;;5.00;55.36
6435;BME280;3250;42.694;23.278;2023-04-07T04:26:21;94542.56;;;5.00;54.25
6435;BME280;3250;42.694;23.278;2023-04-07T04:28:50;94552.81;;;4.86;53.86
6435;BME280;3250;42.694;23.278;2023-04-07T04:31:15;94560.66;;;4.86;54.65
6435;BME280;3250;42.694;23.278;2023-04-07T04:33:41;94555.13;;;4.96;54.28
6435;BME280;3250;42.694;23.278;2023-04-07T04:36:06;94564.03;;;5.02;53.93
6435;BME280;3250;42.694;23.278;2023-04-07T04:38:31;94561.13;;;5.11;54.57
6435;BME280;3250;42.694;23.278;2023-04-07T04:40:57;94556.81;;;5.18;54.98
6435;BME280;3250;42.694;23.278;2023-04-07T04:43:22;94552.94;;;5.14;54.64
6435;BME280;3250;42.694;23.278;2023-04-07T04:45:48;94570.59;;;5.34;54.22
6435;BME280;3250;42.694;23.278;2023-04-07T04:48:13;94568.41;;;5.37;55.37
6435;BME280;3250;42.694;23.278;2023-04-07T04:50:40;94574.25;;;5.39;56.89
6435;BME280;3250;42.694;23.278;2023-04-07T04:53:06;94564.50;;;5.48;57.61
6435;BME280;3250;42.694;23.278;2023-04-07T04:55:31;94564.81;;;5.38;58.73
6435;BME280;3250;42.694;23.278;2023-04-07T04:57:57;94574.88;;;5.41;59.20
6435;BME280;3250;42.694;23.278;2023-04-07T05:00:22;94575.69;;;5.42;58.98
6435;BME280;3250;42.694;23.278;2023-04-07T05:02:47;94586.13;;;5.42;59.37
6435;BME280;3250;42.694;23.278;2023-04-07T05:05:13;94578.13;;;5.43;59.90
6435;BME280;3250;42.694;23.278;2023-04-07T05:07:38;94580.16;;;5.48;59.97
6435;BME280;3250;42.694;23.278;2023-04-07T05:10:06;94593.41;;;5.46;59.39
6435;BME280;3250;42.694;23.278;2023-04-07T05:12:31;94596.38;;;5.64;59.17
6435;BME280;3250;42.694;23.278;2023-04-07T05:14:57;94595.72;;;5.77;59.09
6435;BME280;3250;42.694;23.278;2023-04-07T05:17:22;94586.00;;;6.14;59.36
6435;BME280;3250;42.694;23.278;2023-04-07T05:19:47;94585.22;;;6.89;58.11
6435;BME280;3250;42.694;23.278;2023-04-07T05:22:13;94596.94;;;7.73;55.96
6435;BME280;3250;42.694;23.278;2023-04-07T05:24:38;94586.88;;;8.43;53.36
6435;BME280;3250;42.694;23.278;2023-04-07T05:27:04;94610.84;;;8.66;52.67
6435;BME280;3250;42.694;23.278;2023-04-07T05:29:29;94606.47;;;8.53;51.46
6435;BME280;3250;42.694;23.278;2023-04-07T05:31:54;94608.44;;;7.99;52.21
6435;BME280;3250;42.694;23.278;2023-04-07T05:34:20;94605.41;;;7.69;53.35
6435;BME280;3250;42.694;23.278;2023-04-07T05:36:45;94601.13;;;7.54;55.14
6435;BME280;3250;42.694;23.278;2023-04-07T05:39:11;94606.00;;;7.64;54.94
6435;BME280;3250;42.694;23.278;2023-04-07T05:41:36;94601.56;;;7.71;53.98
6435;BME280;3250;42.694;23.278;2023-04-07T05:44:01;94600.31;;;7.54;54.48
6435;BME280;3250;42.694;23.278;2023-04-07T05:46:27;94582.09;;;7.19;54.96
6435;BME280;3250;42.694;23.278;2023-04-07T05:48:53;94610.13;;;7.26;56.56
6435;BME280;3250;42.694;23.278;2023-04-07T05:51:20;94601.22;;;7.13;57.46
6435;BME280;3250;42.694;23.278;2023-04-07T05:53:45;94591.25;;;6.89;56.54
6435;BME280;3250;42.694;23.278;2023-04-07T05:56:10;94605.16;;;6.90;56.79
6435;BME280;3250;42.694;23.278;2023-04-07T05:58:36;94591.78;;;6.71;57.56
6435;BME280;3250;42.694;23.278;2023-04-07T06:01:01;94597.84;;;6.78;58.05
6435;BME280;3250;42.694;23.278;2023-04-07T06:03:27;94593.53;;;6.99;57.65
6435;BME280;3250;42.694;23.278;2023-04-07T06:05:52;94579.59;;;7.59;57.46
6435;BME280;3250;42.694;23.278;2023-04-07T06:08:17;94599.78;;;8.18;56.14
6435;BME280;3250;42.694;23.278;2023-04-07T06:10:43;94589.09;;;8.19;52.19
6435;BME280;3250;42.694;23.278;2023-04-07T06:13:08;94580.66;;;8.37;47.69
6435;BME280;3250;42.694;23.278;2023-04-07T06:15:34;94597.88;;;8.91;45.69
6435;BME280;3250;42.694;23.278;2023-04-07T06:17:59;94606.31;;;9.57;43.77
6435;BME280;3250;42.694;23.278;2023-04-07T06:20:25;94605.25;;;9.65;42.09
6435;BME280;3250;42.694;23.278;2023-04-07T06:22:52;94588.28;;;9.92;43.64
6435;BME280;3250;42.694;23.278;2023-04-07T06:25:18;94575.06;;;9.74;42.02
6435;BME280;3250;42.694;23.278;2023-04-07T06:27:44;94570.97;;;10.59;40.63
6435;BME280;3250;42.694;23.278;2023-04-07T06:30:09;94588.72;;;11.37;38.59
6435;BME280;3250;42.694;23.278;2023-04-07T06:32:35;94603.66;;;12.79;38.80
6435;BME280;3250;42.694;23.278;2023-04-07T06:35:00;94571.75;;;13.72;34.66
6435;BME280;3250;42.694;23.278;2023-04-07T06:37:26;94600.53;;;14.30;33.44
6435;BME280;3250;42.694;23.278;2023-04-07T06:39:51;94598.06;;;14.74;33.28
6435;BME280;3250;42.694;23.278;2023-04-07T06:42:17;94594.59;;;14.23;32.33
6435;BME280;3250;42.694;23.278;2023-04-07T06:44:42;94601.47;;;12.76;33.13
6435;BME280;3250;42.694;23.278;2023-04-07T06:47:08;94589.31;;;12.52;34.66
6435;BME280;3250;42.694;23.278;2023-04-07T06:49:34;94588.72;;;11.85;35.21
6435;BME280;3250;42.694;23.278;2023-04-07T06:51:59;94575.41;;;11.61;36.19
6435;BME280;3250;42.694;23.278;2023-04-07T06:54:25;94600.13;;;11.49;36.38
6435;BME280;3250;42.694;23.278;2023-04-07T06:56:50;94595.25;;;10.61;37.46
6435;BME280;3250;42.694;23.278;2023-04-07T06:59:16;94596.72;;;10.75;38.55
6435;BME280;3250;42.694;23.278;2023-04-07T07:01:41;94592.94;;;10.89;38.71
6435;BME280;3250;42.694;23.278;2023-04-07T07:04:07;94597.59;;;10.87;38.18
6435;BME280;3250;42.694;23.278;2023-04-07T07:06:33;94603.81;;;11.11;39.29
6435;BME280;3250;42.694;23.278;2023-04-07T07:08:59;94588.50;;;10.65;37.24
6435;BME280;3250;42.694;23.278;2023-04-07T07:11:25;94584.75;;;10.05;39.18
6435;BME280;3250;42.694;23.278;2023-04-07T07:13:51;94611.94;;;10.24;39.12
6435;BME280;3250;42.694;23.278;2023-04-07T07:16:16;94610.50;;;10.28;39.85
6435;BME280;3250;42.694;23.278;2023-04-07T07:18:42;94613.84;;;10.41;39.17
6435;BME280;3250;42.694;23.278;2023-04-07T07:21:07;94612.81;;;10.42;39.83
6435;BME280;3250;42.694;23.278;2023-04-07T07:23:32;94607.03;;;10.02;38.25
6435;BME280;3250;42.694;23.278;2023-04-07T07:25:58;94613.19;;;9.58;38.94
6435;BME280;3250;42.694;23.278;2023-04-07T07:28:24;94601.84;;;9.13;42.03
6435;BME280;3250;42.694;23.278;2023-04-07T07:30:49;94615.47;;;8.84;41.78
6435;BME280;3250;42.694;23.278;2023-04-07T07:33:15;94621.91;;;8.94;42.10
6435;BME280;3250;42.694;23.278;2023-04-07T07:35:40;94624.72;;;8.93;41.52
6435;BME280;3250;42.694;23.278;2023-04-07T07:38:06;94610.41;;;8.82;42.09
6435;BME280;3250;42.694;23.278;2023-04-07T07:40:32;94627.19;;;8.88;43.01
6435;BME280;3250;42.694;23.278;2023-04-07T07:42:58;94633.19;;;9.01;43.66
6435;BME280;3250;42.694;23.278;2023-04-07T07:45:23;94629.88;;;9.26;42.75
6435;BME280;3250;42.694;23.278;2023-04-07T07:47:49;94629.00;;;9.45;42.83
6435;BME280;3250;42.694;23.278;2023-04-07T07:50:14;94609.75;;;9.58;43.19
6435;BME280;3250;42.694;23.278;2023-04-07T07:52:40;94630.97;;;9.88;41.43
6435;BME280;3250;42.694;23.278;2023-04-07T07:55:06;94634.81;;;9.92;40.27
6435;BME280;3250;42.694;23.278;2023-04-07T07:57:31;94622.38;;;10.05;42.03
6435;BME280;3250;42.694;23.278;2023-04-07T07:59:57;94618.91;;;10.11;40.06
6435;BME280;3250;42.694;23.278;2023-04-07T08:02:22;94611.78;;;9.87;39.25
6435;BME280;3250;42.694;23.278;2023-04-07T08:04:53;94587.72;;;9.52;39.33
6435;BME280;3250;42.694;23.278;2023-04-07T08:07:19;94627.44;;;9.69;41.77
6435;BME280;3250;42.694;23.278;2023-04-07T08:09:44;94629.84;;;9.77;40.88
6435;BME280;3250;42.694;23.278;2023-04-07T08:12:10;94615.41;;;9.86;39.69
6435;BME280;3250;42.694;23.278;2023-04-07T08:14:35;94629.09;;;10.33;41.88
6435;BME280;3250;42.694;23.278;2023-04-07T08:17:00;94632.56;;;10.51;40.12
6435;BME280;3250;42.694;23.278;2023-04-07T08:19:26;94628.22;;;10.64;42.94
6435;BME280;3250;42.694;23.278;2023-04-07T08:21:51;94629.38;;;10.68;40.25
6435;BME280;3250;42.694;23.278;2023-04-07T08:24:17;94606.66;;;10.55;40.07
6435;BME280;3250;42.694;23.278;2023-04-07T08:26:43;94632.63;;;10.45;39.06
6435;BME280;3250;42.694;23.278;2023-04-07T08:29:09;94632.91;;;10.37;40.37
6435;BME280;3250;42.694;23.278;2023-04-07T08:31:35;94632.78;;;10.25;40.00
6435;BME280;3250;42.694;23.278;2023-04-07T08:34:00;94630.78;;;9.89;38.24
6435;BME280;3250;42.694;23.278;2023-04-07T08:36:26;94633.16;;;9.97;41.16
6435;BME280;3250;42.694;23.278;2023-04-07T08:38:52;94615.34;;;9.99;41.18
6435;BME280;3250;42.694;23.278;2023-04-07T08:41:28;94627.81;;;10.10;41.35
6435;BME280;3250;42.694;23.278;2023-04-07T08:43:56;94614.75;;;10.53;43.25
6435;BME280;3250;42.694;23.278;2023-04-07T08:46:24;94635.22;;;10.94;38.86
6435;BME280;3250;42.694;23.278;2023-04-07T08:48:51;94632.38;;;10.28;38.10
6435;BME280;3250;42.694;23.278;2023-04-07T08:51:26;94614.34;;;9.62;39.72
6435;BME280;3250;42.694;23.278;2023-04-07T08:53:52;94628.06;;;9.26;40.77
6435;BME280;3250;42.694;23.278;2023-04-07T08:56:19;94638.00;;;9.62;42.43
6435;BME280;3250;42.694;23.278;2023-04-07T08:58:48;94637.38;;;9.98;44.30
6435;BME280;3250;42.694;23.278;2023-04-07T09:01:13;94641.44;;;10.57;42.81
6435;BME280;3250;42.694;23.278;2023-04-07T09:03:44;94629.50;;;11.16;42.14
6435;BME280;3250;42.694;23.278;2023-04-07T09:06:10;94616.50;;;11.51;40.65
6435;BME280;3250;42.694;23.278;2023-04-07T09:08:36;94603.50;;;11.38;37.96
6435;BME280;3250;42.694;23.278;2023-04-07T09:11:01;94626.00;;;11.04;38.84
6435;BME280;3250;42.694;23.278;2023-04-07T09:13:27;94631.25;;;11.04;39.85
6435;BME280;3250;42.694;23.278;2023-04-07T09:15:52;94628.63;;;11.40;41.97
6435;BME280;3250;42.694;23.278;2023-04-07T09:18:18;94627.03;;;11.87;40.63
6435;BME280;3250;42.694;23.278;2023-04-07T09:21:13;94634.94;;;12.17;38.76
6435;BME280;3250;42.694;23.278;2023-04-07T09:23:40;94629.88;;;12.16;38.18
6435;BME280;3250;42.694;23.278;2023-04-07T09:26:25;94632.31;;;12.40;38.22
6435;BME280;3250;42.694;23.278;2023-04-07T09:28:59;94640.94;;;12.36;38.76
6435;BME280;3250;42.694;23.278;2023-04-07T09:31:44;94627.59;;;12.31;38.47
6435;BME280;3250;42.694;23.278;2023-04-07T09:34:27;94636.00;;;12.39;37.50
6435;BME280;3250;42.694;23.278;2023-04-07T09:36:53;94630.47;;;12.29;37.77
6435;BME280;3250;42.694;23.278;2023-04-07T09:39:19;94644.81;;;12.33;39.02
6435;BME280;3250;42.694;23.278;2023-04-07T09:41:44;94646.06;;;12.31;38.08
6435;BME280;3250;42.694;23.278;2023-04-07T09:44:10;94643.09;;;12.27;37.70
6435;BME280;3250;42.694;23.278;2023-04-07T09:46:54;94634.56;;;12.14;38.80
6435;BME280;3250;42.694;23.278;2023-04-07T09:49:20;94634.63;;;11.95;37.65
6435;BME280;3250;42.694;23.278;2023-04-07T09:54:36;94633.69;;;11.90;40.27
6435;BME280;3250;42.694;23.278;2023-04-07T09:57:02;94657.38;;;12.08;39.20
6435;BME280;3250;42.694;23.278;2023-04-07T09:59:30;94657.75;;;12.23;40.39
6435;BME280;3250;42.694;23.278;2023-04-07T10:01:56;94644.69;;;12.28;39.49
6435;BME280;3250;42.694;23.278;2023-04-07T10:04:23;94655.16;;;12.35;40.02
6435;BME280;3250;42.694;23.278;2023-04-07T10:06:51;94622.94;;;12.03;37.47
6435;BME280;3250;42.694;23.278;2023-04-07T10:09:16;94645.22;;;11.77;37.79
6435;BME280;3250;42.694;23.278;2023-04-07T10:11:43;94623.84;;;11.67;40.52
6435;BME280;3250;42.694;23.278;2023-04-07T10:14:09;94640.00;;;11.89;40.93
6435;BME280;3250;42.694;23.278;2023-04-07T10:16:36;94633.28;;;11.75;38.90
6435;BME280;3250;42.694;23.278;2023-04-07T10:19:03;94652.84;;;11.67;39.96
6435;BME280;3250;42.694;23.278;2023-04-07T10:21:31;94651.88;;;11.61;38.97
6435;BME280;3250;42.694;23.278;2023-04-07T10:24:41;94655.13;;;11.45;39.02
6435;BME280;3250;42.694;23.278;2023-04-07T10:27:13;94643.94;;;11.13;39.76
6435;BME280;3250;42.694;23.278;2023-04-07T10:29:42;94645.47;;;11.03;40.77
6435;BME280;3250;42.694;23.278;2023-04-07T10:32:09;94632.72;;;11.00;41.48
6435;BME280;3250;42.694;23.278;2023-04-07T10:37:18;94632.19;;;10.91;42.11
6435;BME280;3250;42.694;23.278;2023-04-07T10:39:50;94655.56;;;11.06;42.22
6435;BME280;3250;42.694;23.278;2023-04-07T10:45:07;94651.94;;;10.82;42.65
6435;BME280;3250;42.694;23.278;2023-04-07T10:47:34;94662.03;;;10.85;44.19
6435;BME280;3250;42.694;23.278;2023-04-07T10:50:20;94661.47;;;11.01;43.28
6435;BME280;3250;42.694;23.278;2023-04-07T10:52:48;94665.59;;;10.97;43.10
6435;BME280;3250;42.694;23.278;2023-04-07T10:55:43;94659.53;;;10.90;43.40
6435;BME280;3250;42.694;23.278;2023-04-07T11:03:22;94650.94;;;11.19;43.92
6435;BME280;3250;42.694;23.278;2023-04-07T11:05:48;94668.88;;;11.29;42.54
6435;BME280;3250;42.694;23.278;2023-04-07T11:08:35;94668.97;;;11.41;44.39
6435;BME280;3250;42.694;23.278;2023-04-07T11:11:02;94650.78;;;11.51;43.94
6435;BME280;3250;42.694;23.278;2023-04-07T11:13:27;94650.47;;;11.59;42.44
6435;BME280;3250;42.694;23.278;2023-04-07T11:15:53;94662.78;;;11.65;42.41
6435;BME280;3250;42.694;23.278;2023-04-07T11:18:20;94664.34;;;11.54;43.07
6435;BME280;3250;42.694;23.278;2023-04-07T11:20:54;94668.28;;;11.45;43.92
6435;BME280;3250;42.694;23.278;2023-04-07T11:23:27;94665.88;;;11.44;43.74
6435;BME280;3250;42.694;23.278;2023-04-07T11:26:00;94668.72;;;11.42;43.59
6435;BME280;3250;42.694;23.278;2023-04-07T11:28:27;94664.22;;;11.31;43.22
6435;BME280;3250;42.694;23.278;2023-04-07T11:30:53;94652.66;;;11.14;44.08
6435;BME280;3250;42.694;23.278;2023-04-07T11:33:25;94668.38;;;11.20;43.75
6435;BME280;3250;42.694;23.278;2023-04-07T11:36:00;94680.81;;;11.31;43.91
6435;BME280;3250;42.694;23.278;2023-04-07T11:38:27;94633.22;;;11.08;43.05
6435;BME280;3250;42.694;23.278;2023-04-07T11:40:54;94667.50;;;11.26;45.07
6435;BME280;3250;42.694;23.278;2023-04-07T11:43:25;94674.75;;;11.31;45.46
6435;BME280;3250;42.694;23.278;2023-04-07T11:46:11;94672.91;;;11.13;44.83
6435;BME280;3250;42.694;23.278;2023-04-07T11:48:39;94673.75;;;11.07;43.98
6435;BME280;3250;42.694;23.278;2023-04-07T11:51:05;94671.88;;;11.14;44.23
6435;BME280;3250;42.694;23.278;2023-04-07T11:53:35;94677.88;;;11.21;43.96
6435;BME280;3250;42.694;23.278;2023-04-07T11:56:12;94662.72;;;11.17;43.82
6435;BME280;3250;42.694;23.278;2023-04-07T11:58:54;94677.22;;;11.26;43.98
6435;BME280;3250;42.694;23.278;2023-04-07T12:01:20;94667.69;;;11.25;44.30
6435;BME280;3250;42.694;23.278;2023-04-07T12:03:57;94646.19;;;11.28;43.10
6435;BME280;3250;42.694;23.278;2023-04-07T12:06:34;94661.88;;;11.41;43.61
6435;BME280;3250;42.694;23.278;2023-04-07T12:09:23;94661.69;;;11.54;43.77
6435;BME280;3250;42.694;23.278;2023-04-07T12:11:50;94656.34;;;11.61;43.87
6435;BME280;3250;42.694;23.278;2023-04-07T12:14:16;94670.22;;;11.75;43.93
6435;BME280;3250;42.694;23.278;2023-04-07T12:16:42;94641.47;;;11.66;43.67
6435;BME280;3250;42.694;23.278;2023-04-07T12:19:07;94666.59;;;11.69;41.51
6435;BME280;3250;42.694;23.278;2023-04-07T12:21:33;94674.78;;;11.61;42.69
6435;BME280;3250;42.694;23.278;2023-04-07T12:23:58;94662.50;;;11.55;42.29
6435;BME280;3250;42.694;23.278;2023-04-07T12:26:23;94656.31;;;11.49;43.33
6435;BME280;3250;42.694;23.278;2023-04-07T12:28:49;94674.28;;;11.52;43.65
6435;BME280;3250;42.694;23.278;2023-04-07T12:31:15;94641.50;;;11.30;43.25
6435;BME280;3250;42.694;23.278;2023-04-07T12:33:41;94641.81;;;11.22;43.83
6435;BME280;3250;42.694;23.278;2023-04-07T12:36:06;94666.97;;;11.36;44.56
6435;BME280;3250;42.694;23.278;2023-04-07T12:38:31;94651.25;;;11.29;44.14
6435;BME280;3250;42.694;23.278;2023-04-07T12:40:57;94674.38;;;11.46;44.10
6435;BME280;3250;42.694;23.278;2023-04-07T12:43:28;94665.06;;;11.43;44.70
6435;BME280;3250;42.694;23.278;2023-04-07T12:45:53;94661.19;;;11.64;43.85
6435;BME280;3250;42.694;23.278;2023-04-07T12:48:19;94671.81;;;11.76;43.88
6435;BME280;3250;42.694;23.278;2023-04-07T12:50:45;94647.78;;;11.65;43.74
6435;BME280;3250;42.694;23.278;2023-04-07T12:53:10;94672.16;;;11.61;44.38
6435;BME280;3250;42.694;23.278;2023-04-07T12:55:36;94664.41;;;11.48;43.22
6435;BME280;3250;42.694;23.278;2023-04-07T12:58:02;94668.97;;;11.41;43.49
6435;BME280;3250;42.694;23.278;2023-04-07T13:00:28;94669.31;;;11.44;43.48
6435;BME280;3250;42.694;23.278;2023-04-07T13:02:54;94670.78;;;11.22;43.50
6435;BME280;3250;42.694;23.278;2023-04-07T13:05:20;94673.13;;;11.12;45.29
6435;BME280;3250;42.694;23.278;2023-04-07T13:07:46;94679.63;;;11.09;45.38
6435;BME280;3250;42.694;23.278;2023-04-07T13:10:11;94683.28;;;11.08;45.34
6435;BME280;3250;42.694;23.278;2023-04-07T13:12:37;94681.44;;;11.09;45.41
6435;BME280;3250;42.694;23.278;2023-04-07T13:15:04;94678.09;;;11.02;44.84
6435;BME280;3250;42.694;23.278;2023-04-07T13:17:30;94676.91;;;10.98;45.45
6435;BME280;3250;42.694;23.278;2023-04-07T13:19:55;94680.84;;;10.88;45.88
6435;BME280;3250;42.694;23.278;2023-04-07T13:22:21;94667.78;;;10.75;44.82
6435;BME280;3250;42.694;23.278;2023-04-07T13:24:47;94661.19;;;10.66;45.48
6435;BME280;3250;42.694;23.278;2023-04-07T13:27:12;94686.59;;;10.79;45.52
6435;BME280;3250;42.694;23.278;2023-04-07T13:29:38;94677.03;;;10.84;46.23
6435;BME280;3250;42.694;23.278;2023-04-07T13:32:10;94670.00;;;10.78;46.06
6435;BME280;3250;42.694;23.278;2023-04-07T13:34:39;94668.47;;;10.71;45.74
6435;BME280;3250;42.694;23.278;2023-04-07T13:37:05;94683.53;;;10.82;47.21
6435;BME280;3250;42.694;23.278;2023-04-07T13:39:31;94690.19;;;10.84;46.67